createdAt,value
2023-05-19T00:01:23.066Z,100493.00
2023-05-19T00:03:53.619Z,100486.78
2023-05-19T00:06:26.767Z,100487.69
2023-05-19T00:09:06.106Z,100481.56
2023-05-19T00:11:36.122Z,100483.38
2023-05-19T00:14:05.966Z,100480.91
2023-05-19T00:16:33.825Z,100480.87
2023-05-19T00:19:02.786Z,100480.84
2023-05-19T00:21:31.316Z,100473.03
2023-05-19T00:23:58.900Z,100481.91
2023-05-19T00:26:27.416Z,100475.84
2023-05-19T00:28:55.661Z,100481.03
2023-05-19T00:31:23.156Z,100480.94
2023-05-19T00:33:52.055Z,100476.59
2023-05-19T00:36:19.963Z,100474.06
2023-05-19T00:38:47.374Z,100473.25
2023-05-19T00:41:15.105Z,100474.22
2023-05-19T00:43:43.497Z,100472.44
2023-05-19T00:46:11.062Z,100479.47
2023-05-19T00:48:38.642Z,100477.84
2023-05-19T00:51:06.716Z,100477.00
2023-05-19T00:53:35.094Z,100475.28
2023-05-19T00:56:03.194Z,100477.09
2023-05-19T00:58:32.567Z,100473.84
2023-05-19T01:01:04.447Z,100474.75
2023-05-19T01:03:35.589Z,100474.66
2023-05-19T01:06:07.414Z,100465.91
2023-05-19T01:08:37.150Z,100470.38
2023-05-19T01:11:05.472Z,100473.09
2023-05-19T01:13:33.506Z,100464.53
2023-05-19T01:16:12.420Z,100468.88
2023-05-19T01:18:46.371Z,100474.03
2023-05-19T01:21:36.430Z,100466.28
2023-05-19T01:24:27.383Z,100470.66
2023-05-19T01:27:20.072Z,100465.56
2023-05-19T01:30:19.232Z,100475.16
2023-05-19T01:32:47.551Z,100474.25
2023-05-19T01:35:15.774Z,100479.50
2023-05-19T01:37:45.369Z,100481.50
2023-05-19T01:40:13.360Z,100480.50
2023-05-19T01:42:41.122Z,100477.06
2023-05-19T01:45:11.832Z,100466.50
2023-05-19T01:47:43.134Z,100464.78
2023-05-19T01:50:11.284Z,100466.59
2023-05-19T01:52:39.009Z,100469.16
2023-05-19T01:55:07.055Z,100471.91
2023-05-19T01:57:52.674Z,100464.97
2023-05-19T02:00:44.789Z,100465.03
2023-05-19T02:03:12.818Z,100471.16
2023-05-19T02:05:40.132Z,100471.28
2023-05-19T02:08:26.313Z,100471.13
2023-05-19T02:11:07.096Z,100471.19
2023-05-19T02:13:37.265Z,100472.06
2023-05-19T02:16:06.177Z,100465.13
2023-05-19T02:18:35.392Z,100466.03
2023-05-19T02:21:03.230Z,100467.75
2023-05-19T02:23:31.307Z,100465.91
2023-05-19T02:25:58.775Z,100465.84
2023-05-19T02:28:28.378Z,100471.13
2023-05-19T02:30:55.939Z,100465.13
2023-05-19T02:33:26.031Z,100467.87
2023-05-19T02:35:53.991Z,100460.84
2023-05-19T02:38:21.457Z,100462.66
2023-05-19T02:40:48.864Z,100463.56
2023-05-19T02:43:16.581Z,100463.50
2023-05-19T02:45:43.995Z,100464.44
2023-05-19T02:48:11.759Z,100465.28
2023-05-19T02:50:39.652Z,100459.19
2023-05-19T02:53:07.117Z,100462.78
2023-05-19T02:55:34.678Z,100460.13
2023-05-19T02:58:02.562Z,100472.41
2023-05-19T03:00:30.153Z,100468.84
2023-05-19T03:03:02.747Z,100468.84
2023-05-19T03:05:31.153Z,100474.06
2023-05-19T03:07:58.632Z,100471.47
2023-05-19T03:10:26.250Z,100477.59
2023-05-19T03:12:53.999Z,100484.50
2023-05-19T03:15:23.251Z,100483.75
2023-05-19T03:17:50.980Z,100480.38
2023-05-19T03:20:18.899Z,100483.69
2023-05-19T03:22:46.378Z,100488.91
2023-05-19T03:25:13.886Z,100489.78
2023-05-19T03:27:42.085Z,100484.59
2023-05-19T03:30:10.398Z,100485.41
2023-05-19T03:32:40.139Z,100484.69
2023-05-19T03:35:08.286Z,100484.72
2023-05-19T03:37:35.853Z,100486.38
2023-05-19T03:40:05.422Z,100486.47
2023-05-19T03:42:34.405Z,100485.69
2023-05-19T03:45:02.660Z,100478.63
2023-05-19T03:47:31.698Z,100478.50
2023-05-19T03:50:00.206Z,100483.72
2023-05-19T03:52:29.546Z,100473.34
2023-05-19T03:54:57.781Z,100476.00
2023-05-19T03:57:25.683Z,100481.09
2023-05-19T03:59:54.146Z,100481.03
2023-05-19T04:02:21.663Z,100481.03
2023-05-19T04:04:50.671Z,100489.72
2023-05-19T04:07:18.389Z,100489.84
2023-05-19T04:09:46.253Z,100490.66
2023-05-19T04:12:13.974Z,100498.53
2023-05-19T04:14:41.497Z,100490.81
2023-05-19T04:17:10.916Z,100490.59
2023-05-19T04:19:38.642Z,100498.37
2023-05-19T04:22:06.154Z,100495.78
2023-05-19T04:24:33.859Z,100507.97
2023-05-19T04:27:02.563Z,100504.28
2023-05-19T04:29:30.037Z,100499.91
2023-05-19T04:31:57.440Z,100503.31
2023-05-19T04:34:25.487Z,100503.25
2023-05-19T04:36:53.482Z,100511.16
2023-05-19T04:39:21.726Z,100515.47
2023-05-19T04:41:49.651Z,100511.84
2023-05-19T04:44:18.495Z,100515.44
2023-05-19T04:46:46.525Z,100513.66
2023-05-19T04:49:14.519Z,100514.31
2023-05-19T04:51:42.396Z,100518.56
2023-05-19T04:54:10.331Z,100516.78
2023-05-19T04:56:38.079Z,100521.87
2023-05-19T04:59:06.887Z,100523.50
2023-05-19T05:01:34.720Z,100522.41
2023-05-19T05:04:02.910Z,100521.38
2023-05-19T05:06:31.667Z,100517.69
2023-05-19T05:09:00.108Z,100519.22
2023-05-19T05:11:28.561Z,100523.12
2023-05-19T05:13:58.210Z,100521.22
2023-05-19T05:16:27.111Z,100525.81
2023-05-19T05:18:55.885Z,100524.78
2023-05-19T05:21:23.965Z,100531.69
2023-05-19T05:23:52.244Z,100540.34
2023-05-19T05:26:24.209Z,100535.91
2023-05-19T05:28:52.547Z,100541.87
2023-05-19T05:31:21.117Z,100529.53
2023-05-19T05:33:48.808Z,100537.16
2023-05-19T05:36:16.665Z,100533.84
2023-05-19T05:38:45.136Z,100546.03
2023-05-19T05:41:12.908Z,100534.44
2023-05-19T05:43:40.797Z,100531.16
2023-05-19T05:46:09.127Z,100536.19
2023-05-19T05:48:37.226Z,100536.69
2023-05-19T05:51:05.922Z,100535.03
2023-05-19T05:53:37.494Z,100539.38
2023-05-19T05:56:05.333Z,100535.56
2023-05-19T05:58:35.788Z,100532.97
2023-05-19T06:01:05.477Z,100536.50
2023-05-19T06:03:33.605Z,100534.53
2023-05-19T06:06:02.247Z,100536.19
2023-05-19T06:08:29.800Z,100543.72
2023-05-19T06:10:58.744Z,100547.25
2023-05-19T06:13:27.261Z,100549.75
2023-05-19T06:15:54.789Z,100542.53
2023-05-19T06:18:22.685Z,100547.28
2023-05-19T06:20:50.132Z,100547.12
2023-05-19T06:23:17.757Z,100549.66
2023-05-19T06:25:45.512Z,100540.94
2023-05-19T06:28:13.151Z,100548.78
2023-05-19T06:30:40.554Z,100558.31
2023-05-19T06:33:08.907Z,100559.16
2023-05-19T06:35:36.506Z,100555.13
2023-05-19T06:38:03.917Z,100555.75
2023-05-19T06:40:31.755Z,100557.75
2023-05-19T06:42:59.346Z,100554.78
2023-05-19T06:45:28.337Z,100553.94
2023-05-19T06:47:58.357Z,100561.31
2023-05-19T06:50:26.308Z,100568.72
2023-05-19T06:52:54.928Z,100576.25
2023-05-19T06:55:22.716Z,100572.44
2023-05-19T06:57:50.333Z,100576.59
2023-05-19T07:00:22.097Z,100576.72
2023-05-19T07:02:51.845Z,100574.72
2023-05-19T07:05:19.596Z,100577.59
2023-05-19T07:07:47.541Z,100578.34
2023-05-19T07:10:15.704Z,100570.53
2023-05-19T07:12:43.756Z,100573.31
2023-05-19T07:15:11.436Z,100573.84
2023-05-19T07:17:39.460Z,100573.41
2023-05-19T07:20:10.030Z,100568.31
2023-05-19T07:22:39.752Z,100572.37
2023-05-19T07:25:08.278Z,100566.69
2023-05-19T07:27:36.706Z,100558.69
2023-05-19T07:30:04.375Z,100568.25
2023-05-19T07:32:32.764Z,100561.19
2023-05-19T07:35:00.217Z,100556.69
2023-05-19T07:37:27.672Z,100565.03
2023-05-19T07:39:55.533Z,100558.84
2023-05-19T07:42:22.950Z,100563.16
2023-05-19T07:44:50.690Z,100561.50
2023-05-19T07:47:18.400Z,100562.53
2023-05-19T07:49:46.033Z,100566.56
2023-05-19T07:52:13.494Z,100559.75
2023-05-19T07:54:41.283Z,100558.91
2023-05-19T07:57:08.696Z,100562.09
2023-05-19T07:59:36.150Z,100554.03
2023-05-19T08:02:03.963Z,100558.75
2023-05-19T08:04:31.790Z,100557.44
2023-05-19T08:06:59.750Z,100554.63
2023-05-19T08:09:27.271Z,100554.53
2023-05-19T08:11:55.098Z,100551.38
2023-05-19T08:14:22.882Z,100543.94
2023-05-19T08:16:50.418Z,100542.28
2023-05-19T08:19:18.274Z,100537.53
2023-05-19T08:21:45.791Z,100543.28
2023-05-19T08:24:13.513Z,100539.41
2023-05-19T08:26:41.648Z,100542.56
2023-05-19T08:29:09.128Z,100547.78
2023-05-19T08:31:36.584Z,100541.19
2023-05-19T08:34:04.300Z,100542.03
2023-05-19T08:36:31.950Z,100544.41
2023-05-19T08:38:59.383Z,100535.06
2023-05-19T08:41:27.055Z,100537.81
2023-05-19T08:43:55.032Z,100524.97
2023-05-19T08:46:25.161Z,100528.06
2023-05-19T08:48:59.298Z,100531.50
2023-05-19T08:51:45.622Z,100543.47
2023-05-19T08:54:18.145Z,100534.19
2023-05-19T08:56:45.760Z,100541.25
2023-05-19T08:59:15.103Z,100535.66
2023-05-19T09:01:45.690Z,100525.41
2023-05-19T09:04:14.212Z,100518.66
2023-05-19T09:06:42.450Z,100530.97
2023-05-19T09:09:10.290Z,100530.34
2023-05-19T09:11:38.182Z,100535.63
2023-05-19T09:14:05.797Z,100526.00
2023-05-19T09:16:33.953Z,100528.47
2023-05-19T09:19:02.070Z,100534.34
2023-05-19T09:21:31.116Z,100525.94
2023-05-19T09:24:09.371Z,100525.31
2023-05-19T09:26:41.578Z,100522.50
2023-05-19T09:29:18.290Z,100523.62
2023-05-19T09:31:53.905Z,100519.06
2023-05-19T09:34:26.819Z,100521.19
2023-05-19T09:36:54.632Z,100518.50
2023-05-19T09:39:25.826Z,100518.91
2023-05-19T09:41:54.268Z,100515.44
2023-05-19T09:44:30.337Z,100517.47
2023-05-19T09:46:58.791Z,100508.75
2023-05-19T09:49:31.426Z,100512.94
2023-05-19T09:52:03.491Z,100504.06
2023-05-19T09:54:32.512Z,100503.78
2023-05-19T09:57:01.467Z,100491.63
2023-05-19T09:59:32.870Z,100493.34
2023-05-19T10:02:02.414Z,100493.06
2023-05-19T10:04:31.030Z,100477.63
2023-05-19T10:07:05.662Z,100488.69
2023-05-19T10:09:34.276Z,100485.72
2023-05-19T10:12:02.615Z,100484.50
2023-05-19T10:14:30.319Z,100483.81
2023-05-19T10:16:59.061Z,100472.44
2023-05-19T10:19:28.862Z,100476.41
2023-05-19T10:21:56.561Z,100478.63
2023-05-19T10:24:24.435Z,100479.34
2023-05-19T10:26:56.369Z,100479.50
2023-05-19T10:29:29.885Z,100475.94
2023-05-19T10:31:59.385Z,100471.97
2023-05-19T10:34:50.517Z,100465.97
2023-05-19T10:37:46.669Z,100469.31
2023-05-19T10:40:21.886Z,100461.84
2023-05-19T10:43:14.133Z,100473.72
2023-05-19T10:45:43.553Z,100466.00
2023-05-19T10:48:13.987Z,100459.44
2023-05-19T10:50:43.972Z,100465.62
2023-05-19T10:53:18.193Z,100458.47
2023-05-19T10:55:47.920Z,100451.00
2023-05-19T10:58:15.571Z,100451.31
2023-05-19T11:00:43.027Z,100444.75
2023-05-19T11:03:15.479Z,100445.25
2023-05-19T11:05:45.650Z,100441.97
2023-05-19T11:08:13.635Z,100442.50
2023-05-19T11:10:45.236Z,100439.69
2023-05-19T11:13:22.682Z,100434.38
2023-05-19T11:15:50.779Z,100440.78
2023-05-19T11:18:19.527Z,100432.06
2023-05-19T11:20:57.988Z,100434.38
2023-05-19T11:23:25.985Z,100427.66
2023-05-19T11:25:56.374Z,100443.75
2023-05-19T11:28:28.141Z,100438.91
2023-05-19T11:30:57.911Z,100433.03
2023-05-19T11:33:29.167Z,100431.72
2023-05-19T11:35:59.953Z,100427.56
2023-05-19T11:38:29.917Z,100425.56
2023-05-19T11:40:57.804Z,100426.44
2023-05-19T11:43:27.722Z,100440.00
2023-05-19T11:45:55.803Z,100437.06
2023-05-19T11:48:24.936Z,100435.84
2023-05-19T11:50:52.592Z,100442.03
2023-05-19T11:53:20.839Z,100437.88
2023-05-19T11:55:49.402Z,100433.81
2023-05-19T11:58:17.652Z,100445.22
2023-05-19T12:00:48.560Z,100432.44
2023-05-19T12:03:28.623Z,100427.34
2023-05-19T12:05:56.530Z,100425.31
2023-05-19T12:08:25.092Z,100433.22
2023-05-19T12:10:52.580Z,100418.78
2023-05-19T12:13:20.138Z,100422.50
2023-05-19T12:15:47.970Z,100426.38
2023-05-19T12:18:15.434Z,100408.50
2023-05-19T12:20:43.188Z,100416.81
2023-05-19T12:23:11.215Z,100413.56
2023-05-19T12:25:38.741Z,100406.75
2023-05-19T12:28:07.245Z,100403.69
2023-05-19T12:30:35.442Z,100399.53
2023-05-19T12:33:03.516Z,100394.31
2023-05-19T12:35:35.977Z,100385.78
2023-05-19T12:38:04.987Z,100381.28
2023-05-19T12:40:37.187Z,100379.41
2023-05-19T12:43:06.646Z,100383.72
2023-05-19T12:45:38.725Z,100378.25
2023-05-19T12:48:11.731Z,100375.38
2023-05-19T12:50:39.330Z,100369.78
2023-05-19T12:53:14.482Z,100364.47
2023-05-19T12:55:43.260Z,100364.47
2023-05-19T12:58:11.959Z,100365.19
2023-05-19T13:00:45.396Z,100362.66
2023-05-19T13:03:18.179Z,100357.09
2023-05-19T13:05:50.373Z,100366.16
2023-05-19T13:08:20.475Z,100363.22
2023-05-19T13:10:49.259Z,100358.78
2023-05-19T13:13:17.320Z,100358.13
2023-05-19T13:15:48.592Z,100357.69
2023-05-19T13:18:17.222Z,100348.87
2023-05-19T13:20:46.938Z,100352.34
2023-05-19T13:23:14.712Z,100348.41
2023-05-19T13:25:42.800Z,100342.91
2023-05-19T13:28:10.810Z,100348.87
2023-05-19T13:30:39.853Z,100341.16
2023-05-19T13:33:07.559Z,100346.00
2023-05-19T13:35:38.848Z,100335.31
2023-05-19T13:38:08.083Z,100327.88
2023-05-19T13:40:36.563Z,100333.94
2023-05-19T13:43:04.433Z,100322.75
2023-05-19T13:45:32.073Z,100320.09
2023-05-19T13:47:59.854Z,100328.09
2023-05-19T13:50:27.407Z,100327.94
2023-05-19T13:52:54.869Z,100324.44
2023-05-19T13:55:23.265Z,100329.16
2023-05-19T13:57:50.948Z,100327.50
2023-05-19T14:00:19.113Z,100317.00
2023-05-19T14:02:47.042Z,100319.09
2023-05-19T14:05:14.612Z,100314.03
2023-05-19T14:07:42.489Z,100316.69
2023-05-19T14:10:10.488Z,100309.22
2023-05-19T14:12:55.106Z,100312.59
2023-05-19T14:15:26.725Z,100316.03
2023-05-19T14:17:54.298Z,100315.50
2023-05-19T14:20:21.918Z,100309.22
2023-05-19T14:22:49.846Z,100318.47
2023-05-19T14:25:17.225Z,100314.19
2023-05-19T14:27:44.678Z,100318.69
2023-05-19T14:30:12.709Z,100317.72
2023-05-19T14:32:40.296Z,100312.81
2023-05-19T14:35:07.955Z,100311.13
2023-05-19T14:37:35.697Z,100318.41
2023-05-19T14:40:04.588Z,100314.66
2023-05-19T14:42:32.143Z,100312.06
2023-05-19T14:44:59.944Z,100310.88
2023-05-19T14:47:27.595Z,100310.78
2023-05-19T14:49:55.116Z,100306.97
2023-05-19T14:52:22.963Z,100305.72
2023-05-19T14:54:50.480Z,100299.75
2023-05-19T14:57:17.926Z,100299.22
2023-05-19T14:59:45.662Z,100296.50
2023-05-19T15:02:13.097Z,100304.31
2023-05-19T15:04:40.585Z,100296.50
2023-05-19T15:07:10.148Z,100293.88
2023-05-19T15:09:38.484Z,100293.56
2023-05-19T15:12:06.050Z,100293.69
2023-05-19T15:14:33.817Z,100301.19
2023-05-19T15:17:01.379Z,100290.91
2023-05-19T15:19:29.057Z,100296.09
2023-05-19T15:21:56.963Z,100295.81
2023-05-19T15:24:24.413Z,100298.13
2023-05-19T15:26:52.415Z,100298.03
2023-05-19T15:29:20.339Z,100295.38
2023-05-19T15:31:54.340Z,100294.09
2023-05-19T15:34:22.065Z,100299.78
2023-05-19T15:36:49.534Z,100293.25
2023-05-19T15:39:16.975Z,100298.91
2023-05-19T15:41:44.915Z,100304.53
2023-05-19T15:44:12.667Z,100300.63
2023-05-19T15:46:40.216Z,100297.09
2023-05-19T15:49:08.159Z,100296.50
2023-05-19T15:51:35.738Z,100293.03
2023-05-19T15:54:03.202Z,100300.72
2023-05-19T15:56:31.109Z,100299.62
2023-05-19T15:58:58.561Z,100297.25
2023-05-19T16:01:26.433Z,100297.19
2023-05-19T16:03:54.479Z,100289.34
2023-05-19T16:06:22.023Z,100293.28
2023-05-19T16:08:49.479Z,100289.84
2023-05-19T16:11:18.249Z,100288.22
2023-05-19T16:13:45.716Z,100295.47
2023-05-19T16:16:13.249Z,100296.91
2023-05-19T16:18:41.114Z,100291.59
2023-05-19T16:21:08.854Z,100295.03
2023-05-19T16:23:36.663Z,100296.56
2023-05-19T16:26:04.479Z,100304.66
2023-05-19T16:28:32.504Z,100300.59
2023-05-19T16:31:00.228Z,100299.09
2023-05-19T16:33:28.293Z,100300.19
2023-05-19T16:35:56.234Z,100299.41
2023-05-19T16:38:23.759Z,100305.81
2023-05-19T16:40:51.557Z,100308.97
2023-05-19T16:43:18.970Z,100301.59
2023-05-19T16:45:46.501Z,100309.06
2023-05-19T16:48:14.324Z,100299.47
2023-05-19T16:50:41.794Z,100306.06
2023-05-19T16:53:09.235Z,100305.13
2023-05-19T16:55:36.987Z,100304.41
2023-05-19T16:58:04.432Z,100302.25
2023-05-19T17:00:31.964Z,100300.91
2023-05-19T17:03:00.887Z,100299.44
2023-05-19T17:05:29.032Z,100293.69
2023-05-19T17:07:56.814Z,100293.84
2023-05-19T17:10:24.505Z,100293.19
2023-05-19T17:12:51.895Z,100293.44
2023-05-19T17:15:19.382Z,100297.41
2023-05-19T17:17:47.212Z,100285.69
2023-05-19T17:20:14.858Z,100296.44
2023-05-19T17:22:42.293Z,100295.75
2023-05-19T17:25:10.196Z,100303.88
2023-05-19T17:27:37.782Z,100303.22
2023-05-19T17:30:05.840Z,100302.06
2023-05-19T17:32:38.587Z,100312.59
2023-05-19T17:35:06.824Z,100306.19
2023-05-19T17:37:34.560Z,100310.38
2023-05-19T17:40:02.650Z,100320.28
2023-05-19T17:42:31.772Z,100318.63
2023-05-19T17:44:59.609Z,100317.69
2023-05-19T17:47:27.106Z,100315.81
2023-05-19T17:49:54.668Z,100319.72
2023-05-19T17:52:22.668Z,100318.91
2023-05-19T17:54:50.729Z,100320.81
2023-05-19T17:57:18.690Z,100324.81
2023-05-19T17:59:46.683Z,100331.09
2023-05-19T18:02:15.683Z,100328.41
2023-05-19T18:04:43.793Z,100327.41
2023-05-19T18:07:11.952Z,100324.75
2023-05-19T18:09:45.513Z,100318.94
2023-05-19T18:12:13.371Z,100326.88
2023-05-19T18:14:40.901Z,100327.53
2023-05-19T18:17:08.558Z,100320.41
2023-05-19T18:19:36.251Z,100330.09
2023-05-19T18:22:03.808Z,100325.34
2023-05-19T18:24:31.398Z,100329.56
2023-05-19T18:26:59.261Z,100328.63
2023-05-19T18:29:26.673Z,100338.47
2023-05-19T18:31:54.136Z,100327.88
2023-05-19T18:34:21.885Z,100340.53
2023-05-19T18:36:49.326Z,100335.50
2023-05-19T18:39:16.772Z,100336.56
2023-05-19T18:41:44.573Z,100337.91
2023-05-19T18:44:12.057Z,100339.78
2023-05-19T18:46:39.504Z,100344.56
2023-05-19T18:49:07.432Z,100345.59
2023-05-19T18:51:36.042Z,100337.84
2023-05-19T18:54:03.573Z,100339.38
2023-05-19T18:56:33.189Z,100347.38
2023-05-19T18:59:00.748Z,100345.94
2023-05-19T19:01:28.336Z,100348.19
2023-05-19T19:03:56.277Z,100351.97
2023-05-19T19:06:23.844Z,100354.88
2023-05-19T19:08:51.609Z,100357.97
2023-05-19T19:11:19.523Z,100354.69
2023-05-19T19:13:50.979Z,100363.09
2023-05-19T19:16:18.771Z,100354.75
2023-05-19T19:18:46.457Z,100362.91
2023-05-19T19:21:14.111Z,100363.28
2023-05-19T19:23:41.829Z,100361.63
2023-05-19T19:26:09.559Z,100377.47
2023-05-19T19:28:37.122Z,100377.62
2023-05-19T19:31:04.810Z,100391.22
2023-05-19T19:33:32.322Z,100383.13
2023-05-19T19:35:59.786Z,100384.28
2023-05-19T19:38:27.580Z,100389.84
2023-05-19T19:40:56.030Z,100389.31
2023-05-19T19:43:23.633Z,100387.47
2023-05-19T19:46:01.434Z,100387.78
2023-05-19T19:48:28.948Z,100395.94
2023-05-19T19:50:57.187Z,100388.06
2023-05-19T19:53:24.893Z,100390.13
2023-05-19T19:55:59.185Z,100391.16
2023-05-19T19:58:28.024Z,100402.56
2023-05-19T20:00:59.490Z,100401.81
2023-05-19T20:03:27.824Z,100393.97
2023-05-19T20:05:56.638Z,100391.41
2023-05-19T20:08:24.858Z,100388.75
2023-05-19T20:10:52.923Z,100389.84
2023-05-19T20:13:20.684Z,100395.06
2023-05-19T20:15:48.237Z,100395.16
2023-05-19T20:18:16.020Z,100394.91
2023-05-19T20:20:43.462Z,100395.03
2023-05-19T20:23:12.530Z,100389.06
2023-05-19T20:25:54.470Z,100392.72
2023-05-19T20:28:26.359Z,100389.28
2023-05-19T20:30:54.062Z,100393.75
2023-05-19T20:33:21.776Z,100388.56
2023-05-19T20:35:49.243Z,100389.50
2023-05-19T20:38:16.955Z,100395.72
2023-05-19T20:40:44.384Z,100394.03
2023-05-19T20:43:12.260Z,100394.84
2023-05-19T20:45:43.070Z,100397.41
2023-05-19T20:48:11.384Z,100399.91
2023-05-19T20:50:39.294Z,100390.44
2023-05-19T20:53:07.542Z,100393.37
2023-05-19T20:55:37.860Z,100377.38
2023-05-19T20:58:05.469Z,100376.53
2023-05-19T21:00:33.452Z,100377.41
2023-05-19T21:03:01.519Z,100371.25
2023-05-19T21:05:29.170Z,100372.91
2023-05-19T21:07:56.995Z,100363.34
2023-05-19T21:10:24.465Z,100372.84
2023-05-19T21:12:51.915Z,100379.56
2023-05-19T21:15:19.810Z,100372.03
2023-05-19T21:17:47.516Z,100388.28
2023-05-19T21:20:15.021Z,100383.00
2023-05-19T21:22:42.768Z,100378.25
2023-05-19T21:25:10.889Z,100377.28
2023-05-19T21:27:39.525Z,100385.34
2023-05-19T21:30:07.922Z,100379.06
2023-05-19T21:32:35.438Z,100380.94
2023-05-19T21:35:03.502Z,100380.81
2023-05-19T21:37:31.208Z,100383.63
2023-05-19T21:39:58.737Z,100378.28
2023-05-19T21:42:26.263Z,100376.56
2023-05-19T21:44:54.083Z,100376.66
2023-05-19T21:47:21.564Z,100374.03
2023-05-19T21:49:49.018Z,100372.16
2023-05-19T21:52:16.725Z,100381.81
2023-05-19T21:54:44.149Z,100370.31
2023-05-19T21:57:12.613Z,100374.22
2023-05-19T21:59:40.540Z,100383.28
2023-05-19T22:02:08.219Z,100381.31
2023-05-19T22:04:36.151Z,100371.97
2023-05-19T22:07:03.893Z,100368.28
2023-05-19T22:09:31.432Z,100366.56
2023-05-19T22:11:59.157Z,100357.66
2023-05-19T22:14:26.602Z,100356.91
2023-05-19T22:16:54.157Z,100356.28
2023-05-19T22:19:21.940Z,100353.69
2023-05-19T22:21:51.810Z,100348.25
2023-05-19T22:24:23.578Z,100342.00
2023-05-19T22:26:51.053Z,100330.78
2023-05-19T22:29:19.636Z,100329.25
2023-05-19T22:31:47.510Z,100325.00
2023-05-19T22:34:15.415Z,100320.75
2023-05-19T22:36:44.291Z,100329.72
2023-05-19T22:39:14.902Z,100323.56
2023-05-19T22:41:42.327Z,100319.22
2023-05-19T22:44:11.364Z,100321.03
2023-05-19T22:46:39.196Z,100330.03
2023-05-19T22:49:06.695Z,100328.28
2023-05-19T22:51:34.340Z,100328.34
2023-05-19T22:54:02.158Z,100320.44
2023-05-19T22:56:29.556Z,100320.72
2023-05-19T22:58:57.003Z,100314.84
2023-05-19T23:01:24.784Z,100320.00
2023-05-19T23:03:52.260Z,100326.31
2023-05-19T23:06:19.800Z,100322.84
2023-05-19T23:08:47.590Z,100324.69
2023-05-19T23:11:15.591Z,100324.03
2023-05-19T23:13:42.988Z,100324.87
2023-05-19T23:16:10.841Z,100324.84
2023-05-19T23:18:38.443Z,100318.97
2023-05-19T23:21:06.013Z,100316.19
2023-05-19T23:23:35.900Z,100308.31
2023-05-19T23:26:03.889Z,100301.28
2023-05-19T23:28:31.367Z,100304.91
2023-05-19T23:30:59.101Z,100301.25
2023-05-19T23:33:26.554Z,100300.34
2023-05-19T23:35:54.214Z,100300.19
2023-05-19T23:38:21.962Z,100304.63
2023-05-19T23:40:49.410Z,100308.94
2023-05-19T23:43:16.951Z,100300.34
2023-05-19T23:45:44.692Z,100295.88
2023-05-19T23:48:12.173Z,100299.81
2023-05-19T23:50:39.655Z,100295.59
2023-05-19T23:53:07.986Z,100292.09
2023-05-19T23:55:35.807Z,100288.53
2023-05-19T23:58:03.415Z,100284.09
